sensor_id;sensor_type;location;lat;lon;timestamp;pressure;altitude;pressure_sealevel;temperature;humidity
74435;BME280;62867;52.038;29.256;2022-09-28T00:03:59;1009.1;;;13.7;73.9
74435;BME280;62867;52.038;29.256;2022-09-28T00:08:57;1009;;;13.7;74.3
74435;BME280;62867;52.038;29.256;2022-09-28T00:13:35;1008.9;;;13.7;74.6
74435;BME280;62867;52.038;29.256;2022-09-28T00:18:35;1009;;;13.7;74.3
74435;BME280;62867;52.038;29.256;2022-09-28T00:23:35;1008.9;;;13.7;74.4
74435;BME280;62867;52.038;29.256;2022-09-28T00:29:00;1008.9;;;13.8;74.3
74435;BME280;62867;52.038;29.256;2022-09-28T00:33:35;1008.9;;;13.8;74.2
74435;BME280;62867;52.038;29.256;2022-09-28T00:38:55;1008.9;;;13.7;74
74435;BME280;62867;52.038;29.256;2022-09-28T00:45:00;1008.8;;;13.7;74.1
74435;BME280;62867;52.038;29.256;2022-09-28T00:49:09;1008.8;;;13.7;74.6
74435;BME280;62867;52.038;29.256;2022-09-28T00:54:09;1008.7;;;13.7;74.6
74435;BME280;62867;52.038;29.256;2022-09-28T00:58:46;1008.7;;;13.7;74.2
74435;BME280;62867;52.038;29.256;2022-09-28T01:03:35;1008.5;;;13.7;74.5
74435;BME280;62867;52.038;29.256;2022-09-28T01:08:46;1008.4;;;13.7;74.6
74435;BME280;62867;52.038;29.256;2022-09-28T01:13:47;1008.4;;;13.7;74.2
74435;BME280;62867;52.038;29.256;2022-09-28T01:20:04;1008.4;;;13.7;74.3
74435;BME280;62867;52.038;29.256;2022-09-28T01:23:37;1008.3;;;13.7;74
74435;BME280;62867;52.038;29.256;2022-09-28T01:29:15;1008.3;;;13.7;74.1
74435;BME280;62867;52.038;29.256;2022-09-28T01:34:11;1008.3;;;13.7;74.3
74435;BME280;62867;52.038;29.256;2022-09-28T01:39:01;1008.3;;;13.6;73.8
74435;BME280;62867;52.038;29.256;2022-09-28T01:44:09;1008.3;;;13.6;73.9
74435;BME280;62867;52.038;29.256;2022-09-28T01:49:11;1008.3;;;13.6;74.2
74435;BME280;62867;52.038;29.256;2022-09-28T01:53:36;1008.1;;;13.6;74.4
74435;BME280;62867;52.038;29.256;2022-09-28T01:58:48;1008.2;;;13.6;74
74435;BME280;62867;52.038;29.256;2022-09-28T02:04:01;1008.2;;;13.6;74.1
74435;BME280;62867;52.038;29.256;2022-09-28T02:09:09;1008.2;;;13.6;74.2
74435;BME280;62867;52.038;29.256;2022-09-28T02:13:58;1008.2;;;13.6;74.2
74435;BME280;62867;52.038;29.256;2022-09-28T02:18:59;1008.2;;;13.6;74.2
74435;BME280;62867;52.038;29.256;2022-09-28T02:24:02;1008.2;;;13.6;74.1
74435;BME280;62867;52.038;29.256;2022-09-28T02:28:57;1008.2;;;13.6;74.1
74435;BME280;62867;52.038;29.256;2022-09-28T02:33:57;1008.3;;;13.6;74
74435;BME280;62867;52.038;29.256;2022-09-28T02:38:57;1008.4;;;13.5;73.8
74435;BME280;62867;52.038;29.256;2022-09-28T02:43:49;1008.5;;;13.5;73.9
74435;BME280;62867;52.038;29.256;2022-09-28T02:49:01;1008.4;;;13.5;74
74435;BME280;62867;52.038;29.256;2022-09-28T02:59:19;1008.5;;;13.4;73.9
74435;BME280;62867;52.038;29.256;2022-09-28T03:04:17;1008.6;;;13.4;73.9
74435;BME280;62867;52.038;29.256;2022-09-28T03:08:57;1008.5;;;13.4;74.1
74435;BME280;62867;52.038;29.256;2022-09-28T03:13:55;1008.6;;;13.4;74
74435;BME280;62867;52.038;29.256;2022-09-28T03:19:11;1008.6;;;13.4;73.3
74435;BME280;62867;52.038;29.256;2022-09-28T03:24:13;1008.5;;;13.3;73
74435;BME280;62867;52.038;29.256;2022-09-28T03:28:57;1008.5;;;13.3;73.2
74435;BME280;62867;52.038;29.256;2022-09-28T03:33:35;1008.4;;;13.2;73
74435;BME280;62867;52.038;29.256;2022-09-28T03:38:35;1008.5;;;13.2;73
74435;BME280;62867;52.038;29.256;2022-09-28T03:44:03;1008.4;;;13.2;73.6
74435;BME280;62867;52.038;29.256;2022-09-28T03:48:55;1008.4;;;13.1;73.9
74435;BME280;62867;52.038;29.256;2022-09-28T03:53:35;1008.4;;;13.2;74.1
74435;BME280;62867;52.038;29.256;2022-09-28T03:58:45;1008.4;;;13.2;73.9
74435;BME280;62867;52.038;29.256;2022-09-28T04:04:09;1008.4;;;13.2;74.2
74435;BME280;62867;52.038;29.256;2022-09-28T04:09:03;1008.4;;;13.2;74.1
74435;BME280;62867;52.038;29.256;2022-09-28T04:14:15;1008.4;;;13.2;74.3
74435;BME280;62867;52.038;29.256;2022-09-28T04:19:15;1008.3;;;13.2;74.5
74435;BME280;62867;52.038;29.256;2022-09-28T04:23:45;1008.2;;;13.2;74.3
74435;BME280;62867;52.038;29.256;2022-09-28T04:28:45;1008.2;;;13.2;74.2
74435;BME280;62867;52.038;29.256;2022-09-28T04:33:41;1008.2;;;13.2;73.7
74435;BME280;62867;52.038;29.256;2022-09-28T04:39:16;1008.2;;;13.2;73.6
74435;BME280;62867;52.038;29.256;2022-09-28T04:44:01;1008.2;;;13.2;74.1
74435;BME280;62867;52.038;29.256;2022-09-28T04:49:13;1008.2;;;13.2;73.7
74435;BME280;62867;52.038;29.256;2022-09-28T04:54:01;1008.1;;;13.2;73.9
74435;BME280;62867;52.038;29.256;2022-09-28T04:58:43;1008.1;;;13.2;73.9
74435;BME280;62867;52.038;29.256;2022-09-28T05:03:57;1008.1;;;13.2;73.9
74435;BME280;62867;52.038;29.256;2022-09-28T05:09:03;1008;;;13.3;73.8
74435;BME280;62867;52.038;29.256;2022-09-28T05:13:47;1007.9;;;13.3;73.4
74435;BME280;62867;52.038;29.256;2022-09-28T05:18:47;1007.9;;;13.3;73.6
74435;BME280;62867;52.038;29.256;2022-09-28T05:23:35;1007.9;;;13.4;73.8
74435;BME280;62867;52.038;29.256;2022-09-28T05:29:13;1007.9;;;13.4;73
74435;BME280;62867;52.038;29.256;2022-09-28T05:34:15;1007.9;;;13.5;73.2
74435;BME280;62867;52.038;29.256;2022-09-28T05:38:55;1007.9;;;13.5;73.3
74435;BME280;62867;52.038;29.256;2022-09-28T05:43:35;1007.9;;;13.5;72.9
74435;BME280;62867;52.038;29.256;2022-09-28T05:49:13;1007.8;;;13.6;72.7
74435;BME280;62867;52.038;29.256;2022-09-28T05:54:13;1007.8;;;13.6;72
74435;BME280;62867;52.038;29.256;2022-09-28T05:58:56;1007.9;;;13.6;72
74435;BME280;62867;52.038;29.256;2022-09-28T06:03:41;1007.9;;;13.6;72.8
74435;BME280;62867;52.038;29.256;2022-09-28T06:08:35;1007.9;;;13.7;72.6
74435;BME280;62867;52.038;29.256;2022-09-28T06:13:55;1007.9;;;13.8;72.6
74435;BME280;62867;52.038;29.256;2022-09-28T06:18:41;1007.9;;;13.9;72.4
74435;BME280;62867;52.038;29.256;2022-09-28T06:23:35;1007.9;;;14;72.5
74435;BME280;62867;52.038;29.256;2022-09-28T06:29:13;1007.9;;;14;71.2
74435;BME280;62867;52.038;29.256;2022-09-28T06:34:05;1007.9;;;14;72.2
74435;BME280;62867;52.038;29.256;2022-09-28T06:38:55;1007.8;;;14.1;72.3
74435;BME280;62867;52.038;29.256;2022-09-28T06:44:13;1007.8;;;14.2;72
74435;BME280;62867;52.038;29.256;2022-09-28T06:48:57;1007.7;;;14.2;71.3
74435;BME280;62867;52.038;29.256;2022-09-28T06:53:35;1007.7;;;14.3;70.8
74435;BME280;62867;52.038;29.256;2022-09-28T06:58:35;1007.7;;;14.4;70.6
74435;BME280;62867;52.038;29.256;2022-09-28T07:03:51;1007.7;;;14.5;71.1
74435;BME280;62867;52.038;29.256;2022-09-28T07:09:15;1007.6;;;14.6;70.4
74435;BME280;62867;52.038;29.256;2022-09-28T07:14:03;1007.6;;;14.7;70.5
74435;BME280;62867;52.038;29.256;2022-09-28T07:19:13;1007.6;;;14.7;69.6
74435;BME280;62867;52.038;29.256;2022-09-28T07:24:01;1007.5;;;14.8;69.7
74435;BME280;62867;52.038;29.256;2022-09-28T07:29:05;1007.5;;;14.7;68.7
74435;BME280;62867;52.038;29.256;2022-09-28T07:33:57;1007.5;;;14.7;68.4
74435;BME280;62867;52.038;29.256;2022-09-28T07:38:45;1007.5;;;14.7;69.1
74435;BME280;62867;52.038;29.256;2022-09-28T07:43:45;1007.4;;;14.7;69.5
74435;BME280;62867;52.038;29.256;2022-09-28T07:48:45;1007.4;;;14.8;69
74435;BME280;62867;52.038;29.256;2022-09-28T07:53:45;1007.5;;;14.9;68.4
74435;BME280;62867;52.038;29.256;2022-09-28T07:59:15;1007.5;;;15;68.6
74435;BME280;62867;52.038;29.256;2022-09-28T08:04:13;1007.5;;;15.1;68.9
74435;BME280;62867;52.038;29.256;2022-09-28T08:08:56;1007.5;;;15.2;69.1
74435;BME280;62867;52.038;29.256;2022-09-28T08:13:55;1007.4;;;15.3;68
74435;BME280;62867;52.038;29.256;2022-09-28T08:19:17;1007.4;;;15.3;67.4
74435;BME280;62867;52.038;29.256;2022-09-28T08:24:17;1007.3;;;15.4;66.2
74435;BME280;62867;52.038;29.256;2022-09-28T08:28:36;1007.3;;;15.4;66.1
74435;BME280;62867;52.038;29.256;2022-09-28T08:33:43;1007.4;;;15.4;66.9
74435;BME280;62867;52.038;29.256;2022-09-28T08:38:35;1007.4;;;15.5;66.5
74435;BME280;62867;52.038;29.256;2022-09-28T08:43:51;1007.3;;;15.5;66.2
74435;BME280;62867;52.038;29.256;2022-09-28T08:49:08;1007.3;;;15.6;67.2
74435;BME280;62867;52.038;29.256;2022-09-28T08:53:54;1007.4;;;15.7;66.3
74435;BME280;62867;52.038;29.256;2022-09-28T08:58:56;1007.4;;;15.8;66.3
74435;BME280;62867;52.038;29.256;2022-09-28T09:03:55;1007.5;;;15.8;66.7
74435;BME280;62867;52.038;29.256;2022-09-28T09:09:29;1007.5;;;15.8;66.4
74435;BME280;62867;52.038;29.256;2022-09-28T09:14:14;1007.5;;;15.8;66.1
74435;BME280;62867;52.038;29.256;2022-09-28T09:19:16;1007.5;;;15.8;66.3
74435;BME280;62867;52.038;29.256;2022-09-28T09:29:03;1007.4;;;15.8;66.2
74435;BME280;62867;52.038;29.256;2022-09-28T09:34:10;1007.4;;;15.7;65.4
74435;BME280;62867;52.038;29.256;2022-09-28T09:39:09;1007.4;;;15.7;65.2
74435;BME280;62867;52.038;29.256;2022-09-28T09:44:20;1007.4;;;15.7;66.9
74435;BME280;62867;52.038;29.256;2022-09-28T09:48:51;1007.4;;;15.7;66.1
74435;BME280;62867;52.038;29.256;2022-09-28T09:54:08;1007.4;;;15.7;66.4
74435;BME280;62867;52.038;29.256;2022-09-28T09:59:01;1007.5;;;15.6;67.1
74435;BME280;62867;52.038;29.256;2022-09-28T10:03:57;1007.5;;;15.6;67.9
74435;BME280;62867;52.038;29.256;2022-09-28T10:09:41;1007.5;;;15.8;67.1
74435;BME280;62867;52.038;29.256;2022-09-28T10:14:02;1007.6;;;15.9;66.9
74435;BME280;62867;52.038;29.256;2022-09-28T10:18:36;1007.6;;;15.9;67
74435;BME280;62867;52.038;29.256;2022-09-28T10:23:45;1007.6;;;16;66.3
74435;BME280;62867;52.038;29.256;2022-09-28T10:28:53;1007.6;;;16.1;64.9
74435;BME280;62867;52.038;29.256;2022-09-28T10:34:14;1007.7;;;16.1;65.1
74435;BME280;62867;52.038;29.256;2022-09-28T10:38:59;1007.6;;;16.2;64.3
74435;BME280;62867;52.038;29.256;2022-09-28T10:44:00;1007.6;;;16.2;65.5
74435;BME280;62867;52.038;29.256;2022-09-28T10:48:59;1007.6;;;16.1;64.9
74435;BME280;62867;52.038;29.256;2022-09-28T10:54:16;1007.6;;;16;64.8
74435;BME280;62867;52.038;29.256;2022-09-28T10:59:27;1007.7;;;15.9;66.2
74435;BME280;62867;52.038;29.256;2022-09-28T11:03:59;1007.7;;;15.9;66.4
74435;BME280;62867;52.038;29.256;2022-09-28T11:08:48;1007.7;;;15.9;67
74435;BME280;62867;52.038;29.256;2022-09-28T11:13:37;1007.6;;;16;66.7
74435;BME280;62867;52.038;29.256;2022-09-28T11:19:34;1007.6;;;16;67.2
74435;BME280;62867;52.038;29.256;2022-09-28T11:23:54;1007.6;;;16;66.6
74435;BME280;62867;52.038;29.256;2022-09-28T11:28:51;1007.6;;;15.9;65.7
74435;BME280;62867;52.038;29.256;2022-09-28T11:34:12;1007.6;;;15.7;66.5
74435;BME280;62867;52.038;29.256;2022-09-28T11:44:13;1007.6;;;15.7;68.6
74435;BME280;62867;52.038;29.256;2022-09-28T11:49:31;1007.6;;;15.6;68.1
74435;BME280;62867;52.038;29.256;2022-09-28T11:54:20;1007.5;;;15.7;68.8
74435;BME280;62867;52.038;29.256;2022-09-28T11:58:56;1007.5;;;15.7;69
74435;BME280;62867;52.038;29.256;2022-09-28T12:03:38;1007.5;;;15.7;68.8
74435;BME280;62867;52.038;29.256;2022-09-28T12:09:11;1007.5;;;15.6;68.2
74435;BME280;62867;52.038;29.256;2022-09-28T12:14:19;1007.5;;;15.6;68
74435;BME280;62867;52.038;29.256;2022-09-28T12:19:05;1007.5;;;15.6;68.1
74435;BME280;62867;52.038;29.256;2022-09-28T12:24:23;1007.5;;;15.6;69.1
74435;BME280;62867;52.038;29.256;2022-09-28T12:29:08;1007.5;;;15.6;69.6
74435;BME280;62867;52.038;29.256;2022-09-28T12:33:55;1007.5;;;15.6;69
74435;BME280;62867;52.038;29.256;2022-09-28T12:44:08;1007.5;;;15.5;69.1
74435;BME280;62867;52.038;29.256;2022-09-28T12:48:50;1007.5;;;15.5;69.8
74435;BME280;62867;52.038;29.256;2022-09-28T13:00:03;1007.4;;;15.6;70.2
74435;BME280;62867;52.038;29.256;2022-09-28T13:04:24;1007.4;;;15.5;70.4
74435;BME280;62867;52.038;29.256;2022-09-28T13:09:08;1007.4;;;15.5;70.4
74435;BME280;62867;52.038;29.256;2022-09-28T13:19:01;1007.2;;;15.4;70.8
74435;BME280;62867;52.038;29.256;2022-09-28T13:24:20;1007.2;;;15.4;70.8
74435;BME280;62867;52.038;29.256;2022-09-28T13:29:19;1007.2;;;15.4;70.7
74435;BME280;62867;52.038;29.256;2022-09-28T13:33:45;1007.2;;;15.4;70.6
74435;BME280;62867;52.038;29.256;2022-09-28T13:38:51;1007.1;;;15.4;71.1
74435;BME280;62867;52.038;29.256;2022-09-28T13:43:44;1007.2;;;15.4;71.1
74435;BME280;62867;52.038;29.256;2022-09-28T13:48:42;1007.2;;;15.4;70.8
74435;BME280;62867;52.038;29.256;2022-09-28T13:54:02;1007.2;;;15.3;71.1
74435;BME280;62867;52.038;29.256;2022-09-28T13:58:55;1007.1;;;15.3;71
74435;BME280;62867;52.038;29.256;2022-09-28T14:04:20;1007.1;;;15.3;71.4
74435;BME280;62867;52.038;29.256;2022-09-28T14:09:21;1007.1;;;15.3;70.8
74435;BME280;62867;52.038;29.256;2022-09-28T14:14:03;1007.2;;;15.1;71.2
74435;BME280;62867;52.038;29.256;2022-09-28T14:19:15;1007.1;;;15.1;71.6
74435;BME280;62867;52.038;29.256;2022-09-28T14:29:21;1007.1;;;15;71.9
74435;BME280;62867;52.038;29.256;2022-09-28T14:33:56;1007;;;14.9;72.2
74435;BME280;62867;52.038;29.256;2022-09-28T14:38:36;1007;;;14.9;72.4
74435;BME280;62867;52.038;29.256;2022-09-28T14:44:13;1007.1;;;14.9;72.5
74435;BME280;62867;52.038;29.256;2022-09-28T14:54:16;1007.2;;;14.8;72.6
74435;BME280;62867;52.038;29.256;2022-09-28T14:59:04;1007.3;;;14.8;72.7
74435;BME280;62867;52.038;29.256;2022-09-28T15:04:06;1007.3;;;14.8;73.3
74435;BME280;62867;52.038;29.256;2022-09-28T15:08:57;1007.3;;;14.8;73.6
74435;BME280;62867;52.038;29.256;2022-09-28T15:14:04;1007.3;;;14.8;73.9
74435;BME280;62867;52.038;29.256;2022-09-28T15:18:40;1007.4;;;14.8;73.3
74435;BME280;62867;52.038;29.256;2022-09-28T15:23:36;1007.5;;;14.8;73.6
74435;BME280;62867;52.038;29.256;2022-09-28T15:28:45;1007.5;;;14.8;73.5
74435;BME280;62867;52.038;29.256;2022-09-28T15:34:33;1007.5;;;14.8;73.4
74435;BME280;62867;52.038;29.256;2022-09-28T15:39:14;1007.5;;;14.8;73.6
74435;BME280;62867;52.038;29.256;2022-09-28T15:43:35;1007.5;;;14.8;74
74435;BME280;62867;52.038;29.256;2022-09-28T15:48:57;1007.6;;;14.8;73.7
74435;BME280;62867;52.038;29.256;2022-09-28T15:54:13;1007.7;;;14.8;73.7
74435;BME280;62867;52.038;29.256;2022-09-28T15:59:20;1007.6;;;14.8;73.8
74435;BME280;62867;52.038;29.256;2022-09-28T16:04:34;1007.6;;;14.8;73.8
74435;BME280;62867;52.038;29.256;2022-09-28T16:08:42;1007.8;;;14.8;74.1
74435;BME280;62867;52.038;29.256;2022-09-28T16:14:15;1007.8;;;14.7;74.2
74435;BME280;62867;52.038;29.256;2022-09-28T16:18:46;1007.9;;;14.7;74.4
74435;BME280;62867;52.038;29.256;2022-09-28T16:23:41;1007.9;;;14.7;74.7
74435;BME280;62867;52.038;29.256;2022-09-28T16:28:53;1008;;;14.8;74.5
74435;BME280;62867;52.038;29.256;2022-09-28T16:34:07;1007.9;;;14.8;74.7
74435;BME280;62867;52.038;29.256;2022-09-28T16:39:05;1007.9;;;14.8;74.6
74435;BME280;62867;52.038;29.256;2022-09-28T16:43:58;1008;;;14.8;74.6
74435;BME280;62867;52.038;29.256;2022-09-28T16:49:15;1008.1;;;14.8;74.7
74435;BME280;62867;52.038;29.256;2022-09-28T16:54:23;1008.1;;;14.8;74.7
74435;BME280;62867;52.038;29.256;2022-09-28T16:58:46;1008.3;;;14.8;74.8
74435;BME280;62867;52.038;29.256;2022-09-28T17:03:59;1008.5;;;14.8;75
74435;BME280;62867;52.038;29.256;2022-09-28T17:08:35;1008.4;;;14.8;74.5
74435;BME280;62867;52.038;29.256;2022-09-28T17:14:15;1008.4;;;14.7;74.4
74435;BME280;62867;52.038;29.256;2022-09-28T17:19:10;1008.3;;;14.7;74.1
74435;BME280;62867;52.038;29.256;2022-09-28T17:24:13;1008.4;;;14.6;73.9
74435;BME280;62867;52.038;29.256;2022-09-28T17:29:01;1008.5;;;14.4;73.9
74435;BME280;62867;52.038;29.256;2022-09-28T17:34:03;1008.5;;;14.3;73.6
74435;BME280;62867;52.038;29.256;2022-09-28T17:38:55;1008.5;;;14.2;73.5
74435;BME280;62867;52.038;29.256;2022-09-28T17:44:01;1008.6;;;14.1;73.5
74435;BME280;62867;52.038;29.256;2022-09-28T17:48:45;1008.6;;;14;73.4
74435;BME280;62867;52.038;29.256;2022-09-28T17:53:35;1008.6;;;13.9;73.1
74435;BME280;62867;52.038;29.256;2022-09-28T17:58:45;1008.6;;;13.7;72.7
74435;BME280;62867;52.038;29.256;2022-09-28T18:04:02;1008.6;;;13.5;72.6
74435;BME280;62867;52.038;29.256;2022-09-28T18:09:14;1008.6;;;13.4;72.7
74435;BME280;62867;52.038;29.256;2022-09-28T18:14:03;1008.7;;;13.2;73.1
74435;BME280;62867;52.038;29.256;2022-09-28T18:18:48;1008.8;;;13.2;73.2
74435;BME280;62867;52.038;29.256;2022-09-28T18:23:55;1008.9;;;13.1;72.8
74435;BME280;62867;52.038;29.256;2022-09-28T18:29:15;1008.9;;;13;73.1
74435;BME280;62867;52.038;29.256;2022-09-28T18:34:11;1009;;;12.9;73.3
74435;BME280;62867;52.038;29.256;2022-09-28T18:38:58;1009.1;;;12.9;73.5
74435;BME280;62867;52.038;29.256;2022-09-28T18:43:46;1009.1;;;12.9;74.2
74435;BME280;62867;52.038;29.256;2022-09-28T18:48:36;1009.2;;;12.8;74.1
74435;BME280;62867;52.038;29.256;2022-09-28T18:54:03;1009.2;;;12.8;74.3
74435;BME280;62867;52.038;29.256;2022-09-28T18:58:36;1009.2;;;12.9;74.7
74435;BME280;62867;52.038;29.256;2022-09-28T19:04:16;1009.3;;;12.9;74.8
74435;BME280;62867;52.038;29.256;2022-09-28T19:09:03;1009.4;;;12.9;74.7
74435;BME280;62867;52.038;29.256;2022-09-28T19:14:13;1009.5;;;12.9;74.7
74435;BME280;62867;52.038;29.256;2022-09-28T19:18:58;1009.5;;;12.8;74.4
74435;BME280;62867;52.038;29.256;2022-09-28T19:24:14;1009.5;;;12.8;74.1
74435;BME280;62867;52.038;29.256;2022-09-28T19:29:15;1009.5;;;12.7;74.2
74435;BME280;62867;52.038;29.256;2022-09-28T19:33:45;1009.6;;;12.7;74.1
74435;BME280;62867;52.038;29.256;2022-09-28T19:38:44;1009.7;;;12.6;73.9
74435;BME280;62867;52.038;29.256;2022-09-28T19:43:41;1009.7;;;12.5;73.4
74435;BME280;62867;52.038;29.256;2022-09-28T19:49:16;1009.7;;;12.4;73.3
74435;BME280;62867;52.038;29.256;2022-09-28T19:54:02;1009.7;;;12.4;73.5
74435;BME280;62867;52.038;29.256;2022-09-28T19:59:02;1009.7;;;12.3;73.6
74435;BME280;62867;52.038;29.256;2022-09-28T20:03:59;1009.8;;;12.2;73.3
74435;BME280;62867;52.038;29.256;2022-09-28T20:08:35;1009.9;;;12.1;73.3
74435;BME280;62867;52.038;29.256;2022-09-28T20:13:45;1009.9;;;12.1;73.4
74435;BME280;62867;52.038;29.256;2022-09-28T20:19:03;1009.9;;;12;73.5
74435;BME280;62867;52.038;29.256;2022-09-28T20:24:05;1010.1;;;12;73.7
74435;BME280;62867;52.038;29.256;2022-09-28T20:28:36;1010.1;;;11.9;73.7
74435;BME280;62867;52.038;29.256;2022-09-28T20:33:35;1010.1;;;11.9;74
74435;BME280;62867;52.038;29.256;2022-09-28T20:39:15;1010.2;;;11.8;73.9
74435;BME280;62867;52.038;29.256;2022-09-28T20:44:04;1010.2;;;11.8;73.8
74435;BME280;62867;52.038;29.256;2022-09-28T20:48:36;1010.2;;;11.7;73.3
74435;BME280;62867;52.038;29.256;2022-09-28T20:53:56;1010.2;;;11.6;73
74435;BME280;62867;52.038;29.256;2022-09-28T20:59:15;1010.3;;;11.5;73.1
74435;BME280;62867;52.038;29.256;2022-09-28T21:03:53;1010.4;;;11.5;73.2
74435;BME280;62867;52.038;29.256;2022-09-28T21:09:02;1010.5;;;11.4;73.1
74435;BME280;62867;52.038;29.256;2022-09-28T21:14:07;1010.5;;;11.3;73.1
74435;BME280;62867;52.038;29.256;2022-09-28T21:19:02;1010.6;;;11.3;73.2
74435;BME280;62867;52.038;29.256;2022-09-28T21:24:13;1010.6;;;11.2;73.4
74435;BME280;62867;52.038;29.256;2022-09-28T21:29:13;1010.7;;;11.2;73.3
74435;BME280;62867;52.038;29.256;2022-09-28T21:33:54;1010.7;;;11.1;73.3
74435;BME280;62867;52.038;29.256;2022-09-28T21:38:43;1010.7;;;11;73.3
74435;BME280;62867;52.038;29.256;2022-09-28T21:43:35;1010.8;;;11;72.8
74435;BME280;62867;52.038;29.256;2022-09-28T21:49:02;1010.8;;;10.9;72.9
74435;BME280;62867;52.038;29.256;2022-09-28T21:53:41;1010.9;;;10.8;72.8
74435;BME280;62867;52.038;29.256;2022-09-28T21:58:53;1010.9;;;10.7;73
74435;BME280;62867;52.038;29.256;2022-09-28T22:04:13;1011;;;10.7;73.2
74435;BME280;62867;52.038;29.256;2022-09-28T22:09:11;1010.9;;;10.6;73
74435;BME280;62867;52.038;29.256;2022-09-28T22:14:01;1011;;;10.6;73
74435;BME280;62867;52.038;29.256;2022-09-28T22:19:15;1011;;;10.6;73.2
74435;BME280;62867;52.038;29.256;2022-09-28T22:24:08;1011.1;;;10.5;73.3
74435;BME280;62867;52.038;29.256;2022-09-28T22:29:13;1011.1;;;10.5;73.5
74435;BME280;62867;52.038;29.256;2022-09-28T22:33:35;1011.2;;;10.5;73.6
74435;BME280;62867;52.038;29.256;2022-09-28T22:38:44;1011.2;;;10.5;73.3
74435;BME280;62867;52.038;29.256;2022-09-28T22:44:14;1011.3;;;10.4;73
74435;BME280;62867;52.038;29.256;2022-09-28T22:48:35;1011.3;;;10.4;73.2
74435;BME280;62867;52.038;29.256;2022-09-28T22:54:10;1011.3;;;10.4;73.4
74435;BME280;62867;52.038;29.256;2022-09-28T22:59:01;1011.4;;;10.3;73.7
74435;BME280;62867;52.038;29.256;2022-09-28T23:04:07;1011.4;;;10.3;73.6
74435;BME280;62867;52.038;29.256;2022-09-28T23:08:56;1011.4;;;10.3;73.6
74435;BME280;62867;52.038;29.256;2022-09-28T23:14:02;1011.5;;;10.3;73.5
74435;BME280;62867;52.038;29.256;2022-09-28T23:18:36;1011.5;;;10.3;73.6
74435;BME280;62867;52.038;29.256;2022-09-28T23:23:49;1011.5;;;10.3;73.7
74435;BME280;62867;52.038;29.256;2022-09-28T23:28:35;1011.5;;;10.3;73.6
74435;BME280;62867;52.038;29.256;2022-09-28T23:34:09;1011.5;;;10.3;73.5
74435;BME280;62867;52.038;29.256;2022-09-28T23:39:08;1011.5;;;10.2;73.2
74435;BME280;62867;52.038;29.256;2022-09-28T23:43:36;1011.6;;;10.2;73.6
74435;BME280;62867;52.038;29.256;2022-09-28T23:48:54;1011.6;;;10.2;73.8
74435;BME280;62867;52.038;29.256;2022-09-28T23:54:12;1011.6;;;10.2;74.2
74435;BME280;62867;52.038;29.256;2022-09-28T23:59:10;1011.7;;;10.2;73.7
